createdAt,value
2018-02-11T00:00:35.298Z,73.30
2018-02-11T00:03:04.178Z,73.90
2018-02-11T00:05:33.067Z,73.60
2018-02-11T00:08:01.244Z,73.60
2018-02-11T00:10:29.390Z,73.80
2018-02-11T00:12:57.565Z,73.30
2018-02-11T00:15:25.703Z,73.30
2018-02-11T00:17:54.674Z,73.40
2018-02-11T00:20:26.187Z,73.30
2018-02-11T00:22:54.341Z,73.30
2018-02-11T00:25:22.625Z,73.60
2018-02-11T00:27:50.837Z,73.80
2018-02-11T00:30:18.997Z,73.80
2018-02-11T00:32:47.902Z,73.90
2018-02-11T00:35:16.072Z,73.90
2018-02-11T00:37:50.489Z,74.10
2018-02-11T00:40:19.386Z,74.30
2018-02-11T00:42:48.278Z,74.00
2018-02-11T00:45:16.437Z,73.90
2018-02-11T00:47:45.347Z,74.40
2018-02-11T00:50:14.232Z,74.10
2018-02-11T00:52:43.111Z,74.20
2018-02-11T00:55:11.994Z,73.90
2018-02-11T00:57:40.982Z,74.10
2018-02-11T01:00:09.878Z,73.70
2018-02-11T01:02:39.011Z,74.10
2018-02-11T01:05:07.143Z,74.00
2018-02-11T01:07:36.039Z,74.20
2018-02-11T01:10:04.963Z,74.00
2018-02-11T01:12:33.088Z,74.10
2018-02-11T01:15:01.295Z,74.00
2018-02-11T01:17:29.421Z,73.50
2018-02-11T01:19:57.569Z,73.60
2018-02-11T01:22:25.711Z,73.60
2018-02-11T01:24:53.858Z,73.80
2018-02-11T01:27:22.779Z,73.90
2018-02-11T01:29:51.644Z,74.20
2018-02-11T01:32:20.665Z,73.80
2018-02-11T01:34:48.782Z,73.80
2018-02-11T01:37:16.925Z,74.40
2018-02-11T01:39:45.056Z,74.30
2018-02-11T01:42:13.971Z,73.90
2018-02-11T01:44:42.117Z,74.00
2018-02-11T01:47:11.005Z,73.80
2018-02-11T01:49:39.933Z,74.00
2018-02-11T01:52:08.040Z,74.00
2018-02-11T01:54:36.171Z,73.80
2018-02-11T01:57:04.301Z,73.50
2018-02-11T01:59:33.212Z,74.10
2018-02-11T02:02:02.095Z,74.10
2018-02-11T02:04:30.997Z,74.20
2018-02-11T02:06:59.152Z,74.30
2018-02-11T02:09:28.056Z,74.20
2018-02-11T02:11:57.043Z,74.10
2018-02-11T02:14:25.926Z,73.90
2018-02-11T02:16:54.840Z,73.80
2018-02-11T02:19:22.969Z,73.80
2018-02-11T02:21:51.118Z,73.90
2018-02-11T02:24:19.242Z,73.90
2018-02-11T02:26:47.379Z,73.70
2018-02-11T02:29:15.506Z,73.70
2018-02-11T02:31:43.657Z,73.70
2018-02-11T02:34:12.554Z,73.90
2018-02-11T02:36:40.689Z,74.60
2018-02-11T02:39:08.806Z,74.20
2018-02-11T02:41:36.946Z,74.30
2018-02-11T02:44:05.108Z,74.40
2018-02-11T02:46:33.225Z,74.50
2018-02-11T02:49:01.384Z,75.30
2018-02-11T02:51:30.276Z,74.70
2018-02-11T02:53:58.446Z,74.70
2018-02-11T02:56:26.590Z,74.90
2018-02-11T02:58:54.714Z,75.00
2018-02-11T03:01:22.970Z,74.80
2018-02-11T03:03:51.103Z,74.70
2018-02-11T03:06:19.250Z,74.80
2018-02-11T03:08:47.490Z,74.80
2018-02-11T03:11:16.419Z,74.90
2018-02-11T03:13:44.544Z,74.80
2018-02-11T03:16:12.674Z,74.80
2018-02-11T03:18:40.814Z,74.90
2018-02-11T03:21:08.950Z,75.00
2018-02-11T03:23:37.850Z,74.90
2018-02-11T03:26:06.009Z,74.90
2018-02-11T03:28:34.915Z,74.90
2018-02-11T03:31:03.039Z,74.90
2018-02-11T03:33:31.198Z,74.90
2018-02-11T03:35:59.331Z,74.80
2018-02-11T03:38:28.222Z,74.90
2018-02-11T03:40:56.386Z,74.80
2018-02-11T03:43:25.289Z,74.70
2018-02-11T03:45:53.461Z,74.70
2018-02-11T03:48:21.589Z,74.60
2018-02-11T03:50:49.991Z,74.50
2018-02-11T03:53:18.186Z,74.60
2018-02-11T03:55:46.649Z,74.40
2018-02-11T03:58:14.777Z,74.40
2018-02-11T04:00:42.889Z,74.20
2018-02-11T04:03:11.798Z,74.40
2018-02-11T04:05:40.686Z,74.60
2018-02-11T04:08:08.831Z,74.60
2018-02-11T04:10:37.753Z,74.50
2018-02-11T04:13:05.887Z,74.50
2018-02-11T04:15:34.075Z,74.30
2018-02-11T04:18:02.967Z,74.20
2018-02-11T04:20:31.874Z,74.10
2018-02-11T04:23:00.031Z,74.10
2018-02-11T04:25:28.942Z,74.30
2018-02-11T04:27:57.098Z,74.30
2018-02-11T04:30:26.010Z,74.30
2018-02-11T04:32:54.125Z,74.30
2018-02-11T04:35:22.333Z,74.20
2018-02-11T04:37:50.476Z,74.30
2018-02-11T04:40:18.602Z,74.60
2018-02-11T04:42:46.781Z,74.30
2018-02-11T04:45:14.919Z,74.30
2018-02-11T04:47:43.836Z,74.30
2018-02-11T04:50:11.969Z,74.30
2018-02-11T04:52:40.139Z,74.30
2018-02-11T04:55:08.258Z,75.00
2018-02-11T04:57:36.401Z,74.30
2018-02-11T05:00:05.315Z,74.30
2018-02-11T05:02:33.461Z,74.30
2018-02-11T05:05:02.383Z,74.40
2018-02-11T05:07:30.521Z,74.40
2018-02-11T05:09:59.437Z,74.50
2018-02-11T05:12:27.564Z,74.40
2018-02-11T05:14:57.226Z,74.30
2018-02-11T05:17:25.383Z,74.30
2018-02-11T05:19:54.289Z,74.30
2018-02-11T05:22:22.418Z,74.30
2018-02-11T05:24:51.324Z,74.40
2018-02-11T05:27:20.240Z,74.20
2018-02-11T05:29:48.364Z,74.20
2018-02-11T05:32:16.486Z,74.10
2018-02-11T05:34:44.631Z,74.00
2018-02-11T05:37:12.786Z,74.00
2018-02-11T05:39:41.702Z,74.50
2018-02-11T05:42:10.717Z,73.90
2018-02-11T05:44:38.836Z,73.90
2018-02-11T05:47:06.966Z,74.00
2018-02-11T05:49:35.093Z,74.20
2018-02-11T05:52:04.019Z,74.20
2018-02-11T05:54:32.144Z,74.20
2018-02-11T05:57:00.271Z,74.20
2018-02-11T05:59:28.403Z,74.20
2018-02-11T06:01:57.326Z,74.20
2018-02-11T06:04:25.445Z,74.10
2018-02-11T06:06:53.583Z,73.80
2018-02-11T06:09:21.726Z,74.00
2018-02-11T06:11:50.635Z,74.00
2018-02-11T06:14:18.756Z,74.00
2018-02-11T06:16:46.874Z,74.00
2018-02-11T06:19:15.017Z,74.10
2018-02-11T06:21:43.906Z,74.20
2018-02-11T06:24:12.905Z,74.20
2018-02-11T06:26:42.604Z,74.30
2018-02-11T06:29:10.790Z,74.30
2018-02-11T06:31:39.777Z,74.20
2018-02-11T06:34:08.770Z,74.20
2018-02-11T06:36:37.712Z,74.90
2018-02-11T06:39:05.818Z,74.20
2018-02-11T06:41:33.976Z,74.10
2018-02-11T06:44:02.116Z,74.20
2018-02-11T06:46:30.259Z,74.30
2018-02-11T06:49:00.021Z,74.00
2018-02-11T06:51:28.150Z,74.00
2018-02-11T06:53:56.259Z,74.00
2018-02-11T06:56:24.383Z,74.00
2018-02-11T06:58:52.548Z,74.00
2018-02-11T07:01:21.426Z,73.90
2018-02-11T07:03:50.332Z,73.80
2018-02-11T07:06:19.222Z,73.90
2018-02-11T07:08:48.149Z,73.80
2018-02-11T07:11:16.267Z,73.80
2018-02-11T07:13:45.172Z,73.50
2018-02-11T07:16:13.320Z,73.50
2018-02-11T07:18:41.453Z,73.40
2018-02-11T07:21:09.590Z,73.10
2018-02-11T07:23:38.483Z,73.00
2018-02-11T07:26:07.407Z,72.90
2018-02-11T07:28:35.528Z,72.90
2018-02-11T07:31:03.666Z,72.80
2018-02-11T07:33:31.790Z,72.40
2018-02-11T07:36:00.678Z,72.60
2018-02-11T07:38:29.581Z,72.20
2018-02-11T07:40:57.718Z,72.20
2018-02-11T07:43:25.852Z,71.90
2018-02-11T07:45:53.957Z,71.70
2018-02-11T07:48:23.598Z,71.20
2018-02-11T07:50:51.723Z,71.20
2018-02-11T07:53:19.847Z,70.70
2018-02-11T07:55:47.978Z,70.80
2018-02-11T07:58:16.119Z,70.80
2018-02-11T08:00:44.248Z,70.60
2018-02-11T08:03:13.131Z,70.80
2018-02-11T08:05:42.033Z,70.40
2018-02-11T08:08:10.929Z,70.10
2018-02-11T08:10:39.078Z,70.10
2018-02-11T08:13:07.974Z,70.10
2018-02-11T08:15:36.890Z,70.10
2018-02-11T08:18:05.038Z,70.10
2018-02-11T08:20:33.996Z,69.90
2018-02-11T08:23:02.152Z,69.80
2018-02-11T08:25:30.275Z,69.90
2018-02-11T08:27:59.250Z,69.50
2018-02-11T08:30:27.348Z,69.50
2018-02-11T08:32:55.472Z,69.20
2018-02-11T08:35:23.710Z,68.80
2018-02-11T08:37:51.850Z,69.00
2018-02-11T08:40:19.981Z,68.90
2018-02-11T08:42:48.132Z,69.00
2018-02-11T08:45:16.318Z,68.60
2018-02-11T08:47:44.463Z,67.80
2018-02-11T08:50:12.575Z,67.50
2018-02-11T08:52:41.527Z,67.60
2018-02-11T08:55:10.405Z,67.50
2018-02-11T08:57:38.557Z,67.40
2018-02-11T09:00:07.516Z,66.30
2018-02-11T09:02:35.688Z,66.30
2018-02-11T09:05:03.797Z,66.50
2018-02-11T09:07:31.940Z,66.00
2018-02-11T09:10:00.117Z,66.70
2018-02-11T09:12:28.230Z,66.00
2018-02-11T09:14:57.164Z,65.90
2018-02-11T09:17:25.285Z,65.90
2018-02-11T09:19:54.191Z,65.80
2018-02-11T09:22:22.372Z,65.80
2018-02-11T09:24:50.497Z,65.40
2018-02-11T09:27:18.637Z,65.70
2018-02-11T09:29:46.765Z,65.40
2018-02-11T09:32:15.791Z,65.40
2018-02-11T09:34:44.678Z,64.10
2018-02-11T09:37:12.827Z,64.10
2018-02-11T09:39:41.794Z,64.40
2018-02-11T09:42:09.924Z,64.40
2018-02-11T09:44:38.064Z,64.30
2018-02-11T09:47:06.956Z,63.10
2018-02-11T09:49:35.111Z,63.10
2018-02-11T09:52:03.253Z,63.40
2018-02-11T09:54:31.370Z,63.30
2018-02-11T09:57:00.298Z,62.20
2018-02-11T09:59:28.434Z,62.20
2018-02-11T10:01:57.376Z,60.70
2018-02-11T10:04:25.507Z,60.80
2018-02-11T10:06:53.669Z,59.80
2018-02-11T10:09:22.590Z,61.40
2018-02-11T10:11:50.733Z,61.30
2018-02-11T10:14:19.648Z,60.20
2018-02-11T10:16:47.801Z,60.10
2018-02-11T10:19:15.971Z,60.20
2018-02-11T10:21:44.111Z,60.10
2018-02-11T10:24:12.268Z,60.50
2018-02-11T10:26:40.398Z,60.10
2018-02-11T10:29:08.541Z,60.50
2018-02-11T10:31:37.489Z,60.40
2018-02-11T10:34:05.623Z,60.30
2018-02-11T10:36:34.527Z,57.80
2018-02-11T10:39:02.674Z,57.80
2018-02-11T10:41:30.782Z,57.60
2018-02-11T10:43:58.938Z,58.40
2018-02-11T10:46:27.847Z,59.00
2018-02-11T10:48:56.015Z,59.00
2018-02-11T10:51:24.219Z,59.30
2018-02-11T10:53:54.086Z,59.80
2018-02-11T10:56:22.229Z,59.70
2018-02-11T10:58:50.351Z,59.30
2018-02-11T11:01:18.492Z,58.40
2018-02-11T11:03:47.382Z,59.10
2018-02-11T11:06:16.299Z,59.00
2018-02-11T11:08:44.431Z,59.00
2018-02-11T11:11:12.580Z,58.10
2018-02-11T11:13:40.702Z,57.40
2018-02-11T11:16:08.863Z,56.90
2018-02-11T11:18:37.768Z,56.90
2018-02-11T11:21:05.919Z,56.90
2018-02-11T11:23:34.036Z,57.80
2018-02-11T11:26:02.513Z,58.60
2018-02-11T11:28:30.647Z,58.90
2018-02-11T11:30:59.585Z,57.70
2018-02-11T11:33:27.748Z,57.70
2018-02-11T11:35:55.877Z,57.40
2018-02-11T11:38:24.809Z,57.50
2018-02-11T11:40:52.930Z,57.50
2018-02-11T11:43:21.045Z,58.10
2018-02-11T11:45:49.196Z,59.10
2018-02-11T11:48:18.813Z,60.40
2018-02-11T11:50:46.973Z,60.30
2018-02-11T11:53:16.033Z,63.20
2018-02-11T11:55:44.181Z,62.50
2018-02-11T11:58:12.319Z,62.70
2018-02-11T12:00:40.457Z,62.90
2018-02-11T12:03:08.642Z,63.40
2018-02-11T12:05:36.771Z,62.90
2018-02-11T12:08:04.908Z,62.40
2018-02-11T12:10:33.312Z,62.20
2018-02-11T12:13:01.470Z,62.80
2018-02-11T12:15:30.541Z,63.20
2018-02-11T12:17:59.419Z,62.30
2018-02-11T12:20:27.591Z,62.40
2018-02-11T12:22:55.694Z,62.90
2018-02-11T12:25:24.889Z,63.30
2018-02-11T12:27:53.772Z,66.00
2018-02-11T12:30:22.846Z,68.00
2018-02-11T12:32:51.017Z,68.10
2018-02-11T12:35:19.970Z,69.70
2018-02-11T12:37:48.178Z,69.70
2018-02-11T12:40:16.318Z,69.60
2018-02-11T12:42:44.454Z,70.10
2018-02-11T12:45:13.515Z,71.00
2018-02-11T12:47:41.673Z,71.50
2018-02-11T12:50:09.799Z,72.60
2018-02-11T12:52:38.686Z,71.20
2018-02-11T12:55:06.826Z,71.20
2018-02-11T12:57:34.977Z,71.80
2018-02-11T13:00:03.600Z,71.20
2018-02-11T13:02:32.501Z,72.40
2018-02-11T13:05:01.390Z,72.70
2018-02-11T13:07:30.542Z,72.60
2018-02-11T13:09:58.702Z,72.60
2018-02-11T13:12:26.929Z,73.00
2018-02-11T13:14:55.078Z,73.40
2018-02-11T13:17:23.970Z,74.00
2018-02-11T13:19:52.854Z,74.10
2018-02-11T13:22:21.029Z,74.10
2018-02-11T13:24:49.915Z,74.80
2018-02-11T13:27:18.062Z,74.80
2018-02-11T13:29:46.177Z,74.40
2018-02-11T13:32:15.091Z,74.90
2018-02-11T13:34:43.228Z,74.90
2018-02-11T13:37:12.136Z,75.90
2018-02-11T13:39:41.039Z,76.30
2018-02-11T13:42:09.179Z,76.40
2018-02-11T13:44:37.303Z,76.70
2018-02-11T13:47:05.427Z,77.20
2018-02-11T13:49:34.403Z,78.30
2018-02-11T13:52:02.564Z,77.80
2018-02-11T13:54:30.686Z,77.90
2018-02-11T13:56:59.004Z,78.00
2018-02-11T13:59:27.123Z,78.70
2018-02-11T14:01:56.055Z,79.60
2018-02-11T14:04:24.714Z,79.50
2018-02-11T14:06:52.825Z,80.30
2018-02-11T14:09:20.967Z,81.30
2018-02-11T14:11:49.138Z,81.00
2018-02-11T14:14:17.253Z,81.40
2018-02-11T14:16:45.428Z,81.60
2018-02-11T14:19:13.596Z,81.60
2018-02-11T14:21:41.774Z,81.90
2018-02-11T14:24:09.894Z,81.90
2018-02-11T14:26:38.765Z,81.90
2018-02-11T14:29:07.676Z,82.30
2018-02-11T14:31:35.849Z,82.30
2018-02-11T14:34:03.973Z,82.60
2018-02-11T14:36:32.125Z,83.30
2018-02-11T14:39:01.054Z,84.20
2018-02-11T14:41:30.007Z,84.50
2018-02-11T14:43:58.158Z,84.50
2018-02-11T14:46:26.282Z,84.70
2018-02-11T14:48:55.225Z,85.50
2018-02-11T14:51:23.416Z,85.30
2018-02-11T14:53:51.563Z,85.40
2018-02-11T14:56:19.698Z,85.50
2018-02-11T14:58:48.771Z,86.00
2018-02-11T15:01:17.001Z,85.90
2018-02-11T15:03:45.129Z,85.80
2018-02-11T15:06:13.298Z,86.00
2018-02-11T15:08:41.427Z,85.90
2018-02-11T15:11:09.590Z,86.30
2018-02-11T15:13:37.774Z,86.00
2018-02-11T15:16:05.920Z,86.20
2018-02-11T15:18:35.242Z,86.10
2018-02-11T15:21:04.296Z,86.00
2018-02-11T15:23:33.236Z,86.10
2018-02-11T15:26:01.400Z,86.00
2018-02-11T15:28:29.539Z,86.20
2018-02-11T15:30:58.452Z,86.00
2018-02-11T15:33:28.264Z,86.30
2018-02-11T15:35:56.597Z,86.20
2018-02-11T15:38:24.843Z,86.40
2018-02-11T15:40:53.050Z,86.70
2018-02-11T15:43:21.202Z,87.20
2018-02-11T15:45:49.349Z,87.40
2018-02-11T15:48:17.498Z,87.40
2018-02-11T15:50:45.994Z,87.20
2018-02-11T15:53:14.146Z,87.30
2018-02-11T15:55:43.060Z,87.70
2018-02-11T15:58:11.237Z,87.80
2018-02-11T16:00:39.361Z,88.00
2018-02-11T16:03:07.529Z,88.10
2018-02-11T16:05:35.911Z,88.10
2018-02-11T16:08:04.055Z,88.20
2018-02-11T16:10:32.170Z,88.50
2018-02-11T16:13:00.342Z,88.50
2018-02-11T16:15:28.511Z,88.60
2018-02-11T16:17:57.856Z,88.50
2018-02-11T16:20:25.996Z,88.50
2018-02-11T16:22:54.130Z,88.80
2018-02-11T16:25:22.474Z,89.00
2018-02-11T16:27:50.653Z,89.10
2018-02-11T16:30:18.799Z,89.10
2018-02-11T16:32:47.154Z,89.10
2018-02-11T16:35:16.059Z,89.00
2018-02-11T16:37:44.242Z,89.00
2018-02-11T16:40:12.326Z,89.00
2018-02-11T16:42:40.481Z,88.90
2018-02-11T16:45:10.675Z,89.10
2018-02-11T16:47:39.634Z,89.20
2018-02-11T16:50:07.754Z,89.20
2018-02-11T16:52:36.855Z,89.50
2018-02-11T16:55:05.801Z,89.40
2018-02-11T16:57:33.951Z,89.50
2018-02-11T17:00:02.101Z,89.30
2018-02-11T17:02:30.304Z,89.10
2018-02-11T17:04:58.667Z,88.90
2018-02-11T17:07:26.919Z,88.90
2018-02-11T17:09:55.053Z,88.90
2018-02-11T17:12:23.206Z,89.00
2018-02-11T17:14:51.357Z,88.80
2018-02-11T17:17:19.494Z,88.40
2018-02-11T17:19:48.878Z,88.30
2018-02-11T17:22:17.094Z,88.30
2018-02-11T17:24:45.241Z,88.10
2018-02-11T17:27:14.212Z,88.10
2018-02-11T17:29:42.367Z,88.20
2018-02-11T17:32:10.529Z,88.00
2018-02-11T17:34:38.812Z,88.10
2018-02-11T17:37:07.053Z,88.00
2018-02-11T17:39:35.937Z,88.20
2018-02-11T17:42:04.070Z,88.20
2018-02-11T17:44:32.197Z,88.30
2018-02-11T17:47:00.322Z,88.50
2018-02-11T17:49:28.507Z,88.60
2018-02-11T17:51:57.456Z,88.40
2018-02-11T17:54:25.565Z,88.40
2018-02-11T17:56:54.816Z,88.10
2018-02-11T17:59:23.679Z,87.80
2018-02-11T18:01:51.830Z,87.80
2018-02-11T18:04:20.956Z,88.10
2018-02-11T18:06:49.482Z,88.10
2018-02-11T18:09:17.912Z,88.00
2018-02-11T18:11:46.167Z,88.20
2018-02-11T18:14:15.067Z,88.30
2018-02-11T18:16:43.959Z,88.30
2018-02-11T18:19:12.109Z,88.50
2018-02-11T18:21:41.134Z,88.50
2018-02-11T18:24:09.285Z,88.40
2018-02-11T18:26:37.475Z,88.50
2018-02-11T18:29:06.372Z,88.50
2018-02-11T18:31:34.507Z,88.50
2018-02-11T18:34:03.445Z,88.50
2018-02-11T18:36:31.591Z,88.50
2018-02-11T18:38:59.889Z,88.50
2018-02-11T18:41:28.173Z,88.40
2018-02-11T18:43:56.354Z,88.30
2018-02-11T18:46:24.541Z,88.40
2018-02-11T18:48:52.681Z,88.60
2018-02-11T18:51:21.671Z,88.90
2018-02-11T18:53:49.824Z,88.90
2018-02-11T18:56:18.796Z,88.90
2018-02-11T18:58:47.746Z,89.00
2018-02-11T19:01:15.901Z,89.00
2018-02-11T19:03:44.092Z,89.10
2018-02-11T19:06:12.263Z,89.00
2018-02-11T19:08:40.394Z,88.90
2018-02-11T19:11:09.366Z,89.50
2018-02-11T19:13:37.524Z,89.50
2018-02-11T19:16:05.672Z,89.40
2018-02-11T19:18:33.966Z,89.50
2018-02-11T19:21:02.134Z,89.30
2018-02-11T19:23:30.283Z,89.40
2018-02-11T19:25:58.441Z,89.50
2018-02-11T19:28:26.575Z,89.70
2018-02-11T19:30:55.187Z,89.20
2018-02-11T19:33:23.703Z,88.90
2018-02-11T19:35:51.857Z,89.10
2018-02-11T19:38:20.012Z,89.00
2018-02-11T19:40:48.181Z,88.80
2018-02-11T19:43:16.333Z,88.70
2018-02-11T19:45:45.272Z,88.50
2018-02-11T19:48:13.403Z,88.50
2018-02-11T19:50:42.359Z,88.60
2018-02-11T19:53:10.533Z,88.50
2018-02-11T19:55:38.715Z,89.10
2018-02-11T19:58:07.623Z,88.90
2018-02-11T20:00:36.709Z,88.90
2018-02-11T20:03:04.959Z,89.10
2018-02-11T20:05:33.114Z,89.10
2018-02-11T20:08:01.285Z,89.10
2018-02-11T20:10:29.458Z,89.20
2018-02-11T20:12:57.663Z,89.30
2018-02-11T20:15:25.825Z,89.00
2018-02-11T20:17:54.013Z,89.20
2018-02-11T20:20:22.160Z,89.10
2018-02-11T20:22:50.402Z,89.20
2018-02-11T20:25:18.594Z,89.00
2018-02-11T20:27:47.179Z,89.20
2018-02-11T20:30:15.385Z,89.50
2018-02-11T20:32:43.586Z,89.60
2018-02-11T20:35:11.758Z,89.40
2018-02-11T20:37:40.158Z,89.60
2018-02-11T20:40:09.151Z,89.50
2018-02-11T20:42:38.229Z,89.50
2018-02-11T20:45:07.125Z,89.50
2018-02-11T20:47:36.076Z,89.60
2018-02-11T20:50:04.277Z,89.60
2018-02-11T20:52:32.571Z,89.60
2018-02-11T20:55:01.528Z,89.90
2018-02-11T20:57:29.819Z,89.90
2018-02-11T20:59:57.967Z,89.90
2018-02-11T21:02:26.135Z,89.80
2018-02-11T21:04:54.318Z,89.90
2018-02-11T21:07:22.547Z,89.80
2018-02-11T21:09:50.847Z,89.80
2018-02-11T21:12:19.033Z,90.10
2018-02-11T21:14:47.237Z,89.60
2018-02-11T21:17:16.186Z,89.50
2018-02-11T21:19:44.333Z,89.50
2018-02-11T21:22:12.748Z,89.10
2018-02-11T21:24:40.883Z,89.70
2018-02-11T21:27:09.032Z,89.80
2018-02-11T21:29:37.233Z,90.10
2018-02-11T21:32:05.387Z,90.10
2018-02-11T21:34:33.532Z,90.10
2018-02-11T21:37:03.498Z,90.20
2018-02-11T21:39:31.865Z,90.20
2018-02-11T21:42:00.046Z,90.30
2018-02-11T21:44:28.934Z,90.20
2018-02-11T21:46:57.045Z,90.20
2018-02-11T21:49:27.395Z,89.90
2018-02-11T21:51:55.522Z,89.90
2018-02-11T21:54:23.633Z,89.80
2018-02-11T21:56:52.647Z,89.70
2018-02-11T21:59:21.526Z,89.70
2018-02-11T22:01:50.441Z,89.60
2018-02-11T22:04:18.570Z,89.60
2018-02-11T22:06:46.711Z,89.70
2018-02-11T22:09:14.938Z,89.80
2018-02-11T22:11:43.824Z,90.00
2018-02-11T22:14:12.732Z,90.10
2018-02-11T22:16:40.850Z,90.10
2018-02-11T22:19:08.992Z,90.00
2018-02-11T22:21:37.306Z,90.20
2018-02-11T22:24:05.526Z,90.10
2018-02-11T22:26:34.528Z,90.40
2018-02-11T22:29:02.707Z,90.40
2018-02-11T22:31:30.830Z,90.40
2018-02-11T22:33:58.965Z,90.50
2018-02-11T22:36:27.110Z,90.60
2018-02-11T22:38:55.398Z,90.50
2018-02-11T22:41:23.754Z,90.50
2018-02-11T22:43:51.926Z,90.40
2018-02-11T22:46:20.048Z,90.40
2018-02-11T22:48:48.201Z,90.60
2018-02-11T22:51:16.565Z,90.70
2018-02-11T22:53:44.769Z,90.80
2018-02-11T22:56:12.858Z,90.60
2018-02-11T22:58:40.985Z,90.50
2018-02-11T23:01:09.122Z,90.50
2018-02-11T23:03:38.129Z,90.40
2018-02-11T23:06:07.043Z,90.40
2018-02-11T23:08:35.180Z,90.40
2018-02-11T23:11:03.303Z,90.30
2018-02-11T23:13:31.659Z,90.60
2018-02-11T23:15:59.816Z,90.30
2018-02-11T23:18:27.970Z,90.30
2018-02-11T23:20:56.846Z,90.10
2018-02-11T23:23:24.973Z,90.10
2018-02-11T23:25:53.118Z,90.10
2018-02-11T23:28:21.262Z,90.00
2018-02-11T23:30:49.409Z,90.00
2018-02-11T23:33:18.097Z,89.80
2018-02-11T23:35:46.253Z,90.00
2018-02-11T23:38:14.410Z,90.10
2018-02-11T23:40:42.542Z,90.00
2018-02-11T23:43:10.772Z,90.00
2018-02-11T23:45:38.904Z,90.00
2018-02-11T23:48:07.009Z,90.10
2018-02-11T23:50:35.167Z,90.00
2018-02-11T23:53:03.312Z,90.20
2018-02-11T23:55:31.506Z,90.20
2018-02-11T23:57:59.611Z,90.20
